createdAt,value
2017-12-20T00:00:37.122Z,20.70
2017-12-20T00:03:04.650Z,20.00
2017-12-20T00:05:32.206Z,19.60
2017-12-20T00:07:59.738Z,19.23
2017-12-20T00:10:28.060Z,20.07
2017-12-20T00:12:55.603Z,19.00
2017-12-20T00:15:23.149Z,18.27
2017-12-20T00:17:51.439Z,19.50
2017-12-20T00:20:19.007Z,20.00
2017-12-20T00:22:46.548Z,16.83
2017-12-20T00:25:14.127Z,20.33
2017-12-20T00:27:41.664Z,18.40
2017-12-20T00:30:09.983Z,18.40
2017-12-20T00:32:37.518Z,19.03
2017-12-20T00:35:05.075Z,20.27
2017-12-20T00:37:32.603Z,20.17
2017-12-20T00:40:00.159Z,21.60
2017-12-20T00:42:27.697Z,20.40
2017-12-20T00:44:55.252Z,20.63
2017-12-20T00:47:22.797Z,18.40
2017-12-20T00:49:50.356Z,18.63
2017-12-20T00:52:17.889Z,19.20
2017-12-20T00:54:45.450Z,20.27
2017-12-20T00:57:12.991Z,18.00
2017-12-20T00:59:41.315Z,20.03
2017-12-20T01:02:08.843Z,19.60
2017-12-20T01:04:37.150Z,19.93
2017-12-20T01:07:04.688Z,18.10
2017-12-20T01:09:32.242Z,18.40
2017-12-20T01:11:59.777Z,20.30
2017-12-20T01:14:27.472Z,19.63
2017-12-20T01:16:55.003Z,19.90
2017-12-20T01:19:23.331Z,18.30
2017-12-20T01:21:50.858Z,18.03
2017-12-20T01:24:18.408Z,20.50
2017-12-20T01:26:46.708Z,19.50
2017-12-20T01:29:14.239Z,18.50
2017-12-20T01:31:42.550Z,18.47
2017-12-20T01:34:10.074Z,18.90
2017-12-20T01:36:38.399Z,19.33
2017-12-20T01:39:05.932Z,17.63
2017-12-20T01:41:33.487Z,18.33
2017-12-20T01:44:01.812Z,16.73
2017-12-20T01:46:29.372Z,17.53
2017-12-20T01:48:56.899Z,19.23
2017-12-20T01:51:24.451Z,17.73
2017-12-20T01:53:51.978Z,17.50
2017-12-20T01:56:19.540Z,16.87
2017-12-20T01:58:47.067Z,17.60
2017-12-20T02:01:14.618Z,16.67
2017-12-20T02:03:42.146Z,15.57
2017-12-20T02:06:09.706Z,15.27
2017-12-20T02:08:37.246Z,14.50
2017-12-20T02:11:05.567Z,16.43
2017-12-20T02:13:33.104Z,15.67
2017-12-20T02:16:00.656Z,15.23
2017-12-20T02:18:28.950Z,14.90
2017-12-20T02:21:05.436Z,15.43
2017-12-20T02:23:32.966Z,15.30
2017-12-20T02:26:00.519Z,13.23
2017-12-20T02:28:28.815Z,14.20
2017-12-20T02:30:56.366Z,13.60
2017-12-20T02:33:30.455Z,13.80
2017-12-20T02:35:58.775Z,15.90
2017-12-20T02:38:38.134Z,13.03
2017-12-20T02:41:08.476Z,12.03
2017-12-20T02:43:36.775Z,11.33
2017-12-20T02:46:05.096Z,11.53
2017-12-20T02:48:32.628Z,12.97
2017-12-20T02:51:00.179Z,11.40
2017-12-20T02:53:28.475Z,10.63
2017-12-20T02:55:56.047Z,10.67
2017-12-20T02:58:23.582Z,11.17
2017-12-20T03:00:51.131Z,9.60
2017-12-20T03:03:19.476Z,9.90
2017-12-20T03:05:47.055Z,9.03
2017-12-20T03:08:14.586Z,9.60
2017-12-20T03:10:42.138Z,10.13
2017-12-20T03:13:09.667Z,10.10
2017-12-20T03:15:37.219Z,9.80
2017-12-20T03:18:04.752Z,10.20
2017-12-20T03:20:32.316Z,10.30
2017-12-20T03:23:00.686Z,11.27
2017-12-20T03:25:28.203Z,10.43
2017-12-20T03:27:55.737Z,10.33
2017-12-20T03:30:23.296Z,10.80
2017-12-20T03:32:50.839Z,9.97
2017-12-20T03:35:19.160Z,10.00
2017-12-20T03:37:46.691Z,10.70
2017-12-20T03:40:14.251Z,10.70
2017-12-20T03:42:41.789Z,10.00
2017-12-20T03:45:10.115Z,10.00
2017-12-20T03:47:37.638Z,9.87
2017-12-20T03:50:05.968Z,10.20
2017-12-20T03:52:33.504Z,10.90
2017-12-20T03:55:01.054Z,11.63
2017-12-20T03:57:28.577Z,9.80
2017-12-20T03:59:56.152Z,9.77
2017-12-20T04:02:24.451Z,10.63
2017-12-20T04:04:51.979Z,9.83
2017-12-20T04:07:20.293Z,10.50
2017-12-20T04:09:47.819Z,9.60
2017-12-20T04:12:16.139Z,10.60
2017-12-20T04:14:43.658Z,9.73
2017-12-20T04:17:11.980Z,9.03
2017-12-20T04:19:39.511Z,9.60
2017-12-20T04:22:07.064Z,9.40
2017-12-20T04:24:35.363Z,10.87
2017-12-20T04:27:02.921Z,8.93
2017-12-20T04:29:30.448Z,10.57
2017-12-20T04:31:58.774Z,10.57
2017-12-20T04:34:26.302Z,11.20
2017-12-20T04:36:54.629Z,11.03
2017-12-20T04:39:22.170Z,10.30
2017-12-20T04:41:49.724Z,11.73
2017-12-20T04:44:17.252Z,9.80
2017-12-20T04:46:45.562Z,11.60
2017-12-20T04:49:13.100Z,10.77
2017-12-20T04:51:40.655Z,10.10
2017-12-20T04:54:08.193Z,10.40
2017-12-20T04:56:36.520Z,9.10
2017-12-20T04:59:04.056Z,10.10
2017-12-20T05:01:31.612Z,10.53
2017-12-20T05:03:59.148Z,10.67
2017-12-20T05:06:26.699Z,11.20
2017-12-20T05:08:54.237Z,10.60
2017-12-20T05:11:21.790Z,10.00
2017-12-20T05:13:49.311Z,11.30
2017-12-20T05:16:16.855Z,10.70
2017-12-20T05:18:45.147Z,9.60
2017-12-20T05:21:12.694Z,10.43
2017-12-20T05:23:40.983Z,10.80
2017-12-20T05:26:08.543Z,11.50
2017-12-20T05:28:36.075Z,10.73
2017-12-20T05:31:03.636Z,10.73
2017-12-20T05:33:31.159Z,9.70
2017-12-20T05:35:58.707Z,10.23
2017-12-20T05:38:26.239Z,10.60
2017-12-20T05:40:53.788Z,9.47
2017-12-20T05:43:22.089Z,9.57
2017-12-20T05:45:49.656Z,11.20
2017-12-20T05:48:17.183Z,10.73
2017-12-20T05:50:45.514Z,10.03
2017-12-20T05:53:13.038Z,9.60
2017-12-20T05:55:40.596Z,10.10
2017-12-20T05:58:08.629Z,10.90
2017-12-20T06:00:36.225Z,10.33
2017-12-20T06:03:03.851Z,9.80
2017-12-20T06:05:31.385Z,9.90
2017-12-20T06:07:58.957Z,8.43
2017-12-20T06:10:26.487Z,9.57
2017-12-20T06:12:54.051Z,10.10
2017-12-20T06:15:21.579Z,8.80
2017-12-20T06:17:49.968Z,9.20
2017-12-20T06:20:17.568Z,8.57
2017-12-20T06:22:45.167Z,9.50
2017-12-20T06:25:12.828Z,8.80
2017-12-20T06:27:41.169Z,10.47
2017-12-20T06:51:23.971Z,9.60
2017-12-20T06:53:52.354Z,10.67
2017-12-20T06:56:20.678Z,9.60
2017-12-20T06:58:48.378Z,10.90
2017-12-20T07:01:15.926Z,9.73
2017-12-20T07:03:43.478Z,10.13
2017-12-20T07:06:11.026Z,10.20
2017-12-20T07:08:38.553Z,11.63
2017-12-20T07:11:06.189Z,11.27
2017-12-20T07:13:34.490Z,10.23
2017-12-20T07:16:02.212Z,9.47
2017-12-20T07:18:29.770Z,9.60
2017-12-20T07:20:57.303Z,9.13
2017-12-20T07:23:24.851Z,9.20
2017-12-20T07:25:52.392Z,8.70
2017-12-20T07:28:20.019Z,8.30
2017-12-20T07:30:47.538Z,8.10
2017-12-20T07:33:15.090Z,7.50
2017-12-20T07:35:42.615Z,9.50
2017-12-20T07:38:10.928Z,7.60
2017-12-20T07:40:38.547Z,7.80
2017-12-20T07:43:06.850Z,6.90
2017-12-20T07:45:34.384Z,7.33
2017-12-20T07:48:02.691Z,7.07
2017-12-20T07:50:30.226Z,7.23
2017-12-20T07:52:57.797Z,6.93
2017-12-20T07:55:25.327Z,7.37
2017-12-20T07:57:53.656Z,7.30
2017-12-20T08:00:21.417Z,7.27
2017-12-20T08:02:48.927Z,7.70
2017-12-20T08:05:16.451Z,7.80
2017-12-20T08:07:44.024Z,9.03
2017-12-20T08:10:11.583Z,8.00
2017-12-20T08:12:39.123Z,7.07
2017-12-20T08:15:07.539Z,7.33
2017-12-20T08:17:35.080Z,7.23
2017-12-20T08:20:02.645Z,7.97
2017-12-20T08:22:30.182Z,7.73
2017-12-20T08:24:57.738Z,8.97
2017-12-20T08:27:25.283Z,9.23
2017-12-20T08:29:52.852Z,9.13
2017-12-20T08:32:20.397Z,9.17
2017-12-20T08:34:47.959Z,9.50
2017-12-20T08:37:15.499Z,9.17
2017-12-20T08:39:43.826Z,9.47
2017-12-20T08:42:11.440Z,9.50
2017-12-20T08:44:39.754Z,8.43
2017-12-20T08:47:07.283Z,9.60
2017-12-20T08:49:34.812Z,9.90
2017-12-20T08:52:02.363Z,9.20
2017-12-20T08:54:29.895Z,8.57
2017-12-20T08:56:57.500Z,7.17
2017-12-20T08:59:25.024Z,7.87
2017-12-20T09:01:52.574Z,8.00
2017-12-20T09:04:20.128Z,7.37
2017-12-20T09:06:47.704Z,7.90
2017-12-20T09:09:15.315Z,7.03
2017-12-20T09:11:43.630Z,8.17
2017-12-20T09:14:11.167Z,8.07
2017-12-20T09:16:38.720Z,7.40
2017-12-20T09:19:06.287Z,7.90
2017-12-20T09:21:33.842Z,8.30
2017-12-20T09:24:02.131Z,7.50
2017-12-20T09:26:29.679Z,7.27
2017-12-20T09:28:57.215Z,6.43
2017-12-20T09:31:25.504Z,5.77
2017-12-20T09:33:53.820Z,6.10
2017-12-20T09:36:21.348Z,6.43
2017-12-20T09:38:49.657Z,5.60
2017-12-20T09:41:17.187Z,4.97
2017-12-20T09:43:44.739Z,4.67
2017-12-20T09:46:13.028Z,5.70
2017-12-20T09:48:40.572Z,5.73
2017-12-20T09:51:08.871Z,5.20
2017-12-20T09:53:36.422Z,4.93
2017-12-20T09:56:03.954Z,5.50
2017-12-20T09:58:34.154Z,5.30
2017-12-20T10:01:01.748Z,5.57
2017-12-20T10:03:30.157Z,5.20
2017-12-20T10:05:57.687Z,5.80
2017-12-20T10:08:26.055Z,5.20
2017-12-20T10:10:53.579Z,5.23
2017-12-20T10:13:21.147Z,5.60
2017-12-20T10:15:48.673Z,5.47
2017-12-20T10:18:16.987Z,6.90
2017-12-20T10:20:44.564Z,5.77
2017-12-20T10:23:12.900Z,6.07
2017-12-20T10:25:40.427Z,6.07
2017-12-20T10:28:08.791Z,6.23
2017-12-20T10:30:37.095Z,5.83
2017-12-20T10:33:04.639Z,6.60
2017-12-20T10:35:32.953Z,6.60
2017-12-20T10:38:00.508Z,6.27
2017-12-20T10:40:28.468Z,7.03
2017-12-20T10:42:56.055Z,6.67
2017-12-20T10:45:23.574Z,6.10
2017-12-20T10:47:51.608Z,6.33
2017-12-20T10:50:19.247Z,6.03
2017-12-20T10:52:47.171Z,5.63
2017-12-20T10:55:14.799Z,5.63
2017-12-20T10:57:42.503Z,5.97
2017-12-20T11:00:10.051Z,5.60
2017-12-20T11:02:38.354Z,5.50
2017-12-20T11:05:06.280Z,5.43
2017-12-20T11:07:37.980Z,5.93
2017-12-20T11:10:05.532Z,7.63
2017-12-20T11:12:33.082Z,6.63
2017-12-20T11:15:00.632Z,6.17
2017-12-20T11:17:28.927Z,4.87
2017-12-20T11:19:56.491Z,6.07
2017-12-20T11:22:24.015Z,6.37
2017-12-20T11:24:52.334Z,5.90
2017-12-20T11:27:19.863Z,6.57
2017-12-20T11:29:48.179Z,5.80
2017-12-20T11:32:15.710Z,5.87
2017-12-20T11:34:43.263Z,5.83
2017-12-20T11:37:11.555Z,5.30
2017-12-20T11:39:39.098Z,5.33
2017-12-20T11:42:07.386Z,5.57
2017-12-20T11:44:34.941Z,5.40
2017-12-20T11:47:02.479Z,5.90
2017-12-20T11:49:30.035Z,5.93
2017-12-20T11:51:57.556Z,6.20
2017-12-20T11:54:25.086Z,6.90
2017-12-20T11:56:52.642Z,6.23
2017-12-20T11:59:20.935Z,6.73
2017-12-20T12:01:48.484Z,6.37
2017-12-20T12:04:16.018Z,6.37
2017-12-20T12:06:44.347Z,7.37
2017-12-20T12:09:11.879Z,7.50
2017-12-20T12:11:39.435Z,6.40
2017-12-20T12:14:06.971Z,6.57
2017-12-20T12:16:34.532Z,7.83
2017-12-20T12:19:02.055Z,8.20
2017-12-20T12:21:29.614Z,7.63
2017-12-20T12:23:57.141Z,6.47
2017-12-20T12:26:24.691Z,9.33
2017-12-20T12:28:52.239Z,9.27
2017-12-20T12:31:20.559Z,9.80
2017-12-20T12:33:48.087Z,9.80
2017-12-20T12:36:15.642Z,10.13
2017-12-20T12:38:43.934Z,10.97
2017-12-20T12:41:11.491Z,9.03
2017-12-20T12:43:39.033Z,9.13
2017-12-20T12:46:07.411Z,11.50
2017-12-20T12:48:35.711Z,9.53
2017-12-20T12:51:03.250Z,10.83
2017-12-20T12:53:31.581Z,10.00
2017-12-20T12:55:59.115Z,10.37
2017-12-20T12:58:26.671Z,9.70
2017-12-20T13:00:54.970Z,9.10
2017-12-20T13:03:22.526Z,7.73
2017-12-20T13:05:50.069Z,10.13
2017-12-20T13:08:17.628Z,9.53
2017-12-20T13:10:45.163Z,9.80
2017-12-20T13:13:13.479Z,9.67
2017-12-20T13:15:41.011Z,10.50
2017-12-20T13:18:08.576Z,9.57
2017-12-20T13:20:36.106Z,10.37
2017-12-20T13:23:04.422Z,10.33
2017-12-20T13:25:31.953Z,9.53
2017-12-20T13:28:00.287Z,8.60
2017-12-20T13:30:27.815Z,9.17
2017-12-20T13:32:55.379Z,8.07
2017-12-20T13:35:22.906Z,8.00
2017-12-20T13:37:51.227Z,8.37
2017-12-20T13:40:18.758Z,9.33
2017-12-20T13:42:47.075Z,9.10
2017-12-20T13:45:14.600Z,7.90
2017-12-20T13:47:42.142Z,7.07
2017-12-20T13:50:10.435Z,7.83
2017-12-20T13:52:37.966Z,7.43
2017-12-20T13:55:05.537Z,8.07
2017-12-20T13:57:33.840Z,8.23
2017-12-20T14:00:01.397Z,7.70
2017-12-20T14:02:28.931Z,8.57
2017-12-20T14:04:57.259Z,8.97
2017-12-20T14:07:24.789Z,9.13
2017-12-20T14:09:52.347Z,7.40
2017-12-20T14:12:19.882Z,8.47
2017-12-20T14:14:47.444Z,9.57
2017-12-20T14:17:15.747Z,11.13
2017-12-20T14:19:43.303Z,7.87
2017-12-20T14:22:10.838Z,9.03
2017-12-20T14:24:38.398Z,10.87
2017-12-20T14:27:06.702Z,8.87
2017-12-20T14:29:34.272Z,10.40
2017-12-20T14:32:01.806Z,11.70
2017-12-20T14:34:30.131Z,11.40
2017-12-20T14:36:57.670Z,13.47
2017-12-20T14:39:25.226Z,11.20
2017-12-20T14:41:52.753Z,11.90
2017-12-20T14:44:21.070Z,11.50
2017-12-20T14:46:48.603Z,10.20
2017-12-20T14:49:16.926Z,9.80
2017-12-20T14:51:44.452Z,11.10
2017-12-20T14:54:12.015Z,11.20
2017-12-20T14:56:39.559Z,11.03
2017-12-20T14:59:07.887Z,12.90
2017-12-20T15:01:35.446Z,12.20
2017-12-20T15:04:03.008Z,12.57
2017-12-20T15:06:30.534Z,13.00
2017-12-20T15:08:58.103Z,11.87
2017-12-20T15:11:25.635Z,12.47
2017-12-20T15:13:53.950Z,11.40
2017-12-20T15:16:21.482Z,11.60
2017-12-20T15:18:49.031Z,11.97
2017-12-20T15:21:17.344Z,12.60
2017-12-20T15:23:44.902Z,11.50
2017-12-20T15:26:12.439Z,12.07
2017-12-20T15:28:40.004Z,13.03
2017-12-20T15:31:07.547Z,13.53
2017-12-20T15:33:35.866Z,12.50
2017-12-20T15:36:03.395Z,13.10
2017-12-20T15:38:30.946Z,13.63
2017-12-20T15:40:59.247Z,12.17
2017-12-20T15:43:26.799Z,16.00
2017-12-20T15:45:54.335Z,13.00
2017-12-20T15:48:22.679Z,13.00
2017-12-20T15:50:50.211Z,13.87
2017-12-20T15:53:17.775Z,12.63
2017-12-20T15:55:45.312Z,13.47
2017-12-20T15:58:12.885Z,13.57
2017-12-20T16:00:40.423Z,14.57
2017-12-20T16:03:07.994Z,14.83
2017-12-20T16:05:35.552Z,13.50
2017-12-20T16:08:03.086Z,14.50
2017-12-20T16:10:31.425Z,14.60
2017-12-20T16:12:58.955Z,15.10
2017-12-20T16:15:26.511Z,15.63
2017-12-20T16:17:54.046Z,17.03
2017-12-20T16:20:22.379Z,15.40
2017-12-20T16:22:49.911Z,14.30
2017-12-20T16:25:17.472Z,17.73
2017-12-20T16:27:45.000Z,17.43
2017-12-20T16:30:13.328Z,22.47
2017-12-20T16:32:40.863Z,22.90
2017-12-20T16:35:09.187Z,28.07
2017-12-20T16:37:36.718Z,27.97
2017-12-20T16:40:12.219Z,26.33
2017-12-20T16:42:40.518Z,20.00
2017-12-20T16:45:08.074Z,19.77
2017-12-20T16:47:35.619Z,24.30
2017-12-20T16:50:03.952Z,16.43
2017-12-20T16:52:31.485Z,18.37
2017-12-20T16:54:59.046Z,15.30
2017-12-20T16:57:26.582Z,14.87
2017-12-20T16:59:54.911Z,14.40
2017-12-20T17:02:22.443Z,12.30
2017-12-20T17:04:49.997Z,15.87
2017-12-20T17:07:17.534Z,15.27
2017-12-20T17:09:45.850Z,14.80
2017-12-20T17:12:13.381Z,15.40
2017-12-20T17:14:40.944Z,15.80
2017-12-20T17:17:08.478Z,15.33
2017-12-20T17:19:36.039Z,15.70
2017-12-20T17:22:04.343Z,15.83
2017-12-20T17:24:31.906Z,16.90
2017-12-20T17:26:59.432Z,16.53
2017-12-20T17:29:27.019Z,15.47
2017-12-20T17:31:54.555Z,16.20
2017-12-20T17:34:22.114Z,17.67
2017-12-20T17:36:50.415Z,16.60
2017-12-20T17:39:17.967Z,20.90
2017-12-20T17:41:46.254Z,20.53
2017-12-20T17:44:13.806Z,17.07
2017-12-20T17:46:42.112Z,17.80
2017-12-20T17:49:09.678Z,15.70
2017-12-20T17:51:37.222Z,15.20
2017-12-20T17:54:04.779Z,17.70
2017-12-20T17:56:32.315Z,23.63
2017-12-20T17:59:00.647Z,23.57
2017-12-20T18:01:28.186Z,22.60
2017-12-20T18:03:55.746Z,18.40
2017-12-20T18:06:23.295Z,19.70
2017-12-20T18:08:50.858Z,19.87
2017-12-20T18:11:18.396Z,15.90
2017-12-20T18:13:46.695Z,17.17
2017-12-20T18:16:14.250Z,16.20
2017-12-20T18:18:41.787Z,14.70
2017-12-20T18:21:10.118Z,16.60
2017-12-20T18:23:37.645Z,15.70
2017-12-20T18:26:05.205Z,17.80
2017-12-20T18:28:32.738Z,17.73
2017-12-20T18:31:01.076Z,17.73
2017-12-20T18:33:28.610Z,19.67
2017-12-20T18:35:56.931Z,24.00
2017-12-20T18:38:24.475Z,18.37
2017-12-20T18:40:52.033Z,19.40
2017-12-20T18:43:19.572Z,18.10
2017-12-20T18:45:47.131Z,17.27
2017-12-20T18:48:14.666Z,18.13
2017-12-20T18:50:42.996Z,17.67
2017-12-20T18:53:10.536Z,19.03
2017-12-20T18:55:38.094Z,19.10
2017-12-20T18:58:05.633Z,21.10
2017-12-20T19:00:33.194Z,20.27
2017-12-20T19:03:00.733Z,17.23
2017-12-20T19:05:29.067Z,16.20
2017-12-20T19:07:56.597Z,18.47
2017-12-20T19:10:24.164Z,16.20
2017-12-20T19:12:51.703Z,18.77
2017-12-20T19:15:19.254Z,17.50
2017-12-20T19:17:47.550Z,17.00
2017-12-20T19:20:15.109Z,18.53
2017-12-20T19:22:42.636Z,18.83
2017-12-20T19:25:10.464Z,18.47
2017-12-20T19:27:38.158Z,17.53
2017-12-20T19:30:05.729Z,17.90
2017-12-20T19:32:34.041Z,20.13
2017-12-20T19:35:01.612Z,18.63
2017-12-20T19:37:29.155Z,19.93
2017-12-20T19:39:56.720Z,19.97
2017-12-20T19:42:24.256Z,19.47
2017-12-20T19:44:52.582Z,22.90
2017-12-20T19:47:20.123Z,26.07
2017-12-20T19:49:47.681Z,22.50
2017-12-20T19:52:15.219Z,28.23
2017-12-20T19:54:43.542Z,22.30
2017-12-20T19:57:11.079Z,21.97
2017-12-20T19:59:38.655Z,27.67
2017-12-20T20:02:06.182Z,26.57
2017-12-20T20:04:33.796Z,23.90
2017-12-20T20:07:01.309Z,21.33
2017-12-20T20:09:28.881Z,21.50
2017-12-20T20:11:56.410Z,27.40
2017-12-20T20:14:24.736Z,23.40
2017-12-20T20:16:52.269Z,25.87
2017-12-20T20:19:20.156Z,22.57
2017-12-20T20:21:47.718Z,22.10
2017-12-20T20:24:15.250Z,23.70
2017-12-20T20:26:42.807Z,24.17
2017-12-20T20:29:10.344Z,24.80
2017-12-20T20:31:38.675Z,25.10
2017-12-20T20:34:06.206Z,22.67
2017-12-20T20:36:33.766Z,26.00
2017-12-20T20:39:01.299Z,23.43
2017-12-20T20:41:29.627Z,20.00
2017-12-20T20:43:57.159Z,21.27
2017-12-20T20:46:24.721Z,20.40
2017-12-20T20:48:52.256Z,21.50
2017-12-20T20:51:20.574Z,22.70
2017-12-20T20:53:48.110Z,22.97
2017-12-20T20:56:15.688Z,21.10
2017-12-20T20:58:43.224Z,21.47
2017-12-20T21:01:11.693Z,20.67
2017-12-20T21:03:39.252Z,23.70
2017-12-20T21:06:07.577Z,22.13
2017-12-20T21:08:35.120Z,20.90
2017-12-20T21:11:02.677Z,22.20
2017-12-20T21:13:30.214Z,23.43
2017-12-20T21:15:58.528Z,22.47
2017-12-20T21:18:26.076Z,23.00
2017-12-20T21:20:53.798Z,25.30
2017-12-20T21:23:22.138Z,23.00
2017-12-20T21:25:49.695Z,20.40
2017-12-20T21:28:17.227Z,21.60
2017-12-20T21:30:44.799Z,20.07
2017-12-20T21:33:12.332Z,24.20
2017-12-20T21:35:40.668Z,24.23
2017-12-20T21:38:08.210Z,24.20
2017-12-20T21:40:36.114Z,24.03
2017-12-20T21:43:04.452Z,23.77
2017-12-20T21:45:32.058Z,24.63
2017-12-20T21:47:59.628Z,25.77
2017-12-20T21:50:27.225Z,24.27
2017-12-20T21:52:54.760Z,26.93
2017-12-20T21:55:23.063Z,33.70
2017-12-20T21:57:50.630Z,27.10
2017-12-20T22:00:18.308Z,24.23
2017-12-20T22:02:45.945Z,27.50
2017-12-20T22:05:13.522Z,27.67
2017-12-20T22:07:41.095Z,24.43
2017-12-20T22:10:08.636Z,23.23
2017-12-20T22:12:36.215Z,24.30
2017-12-20T22:15:03.908Z,26.50
2017-12-20T22:17:31.477Z,25.00
2017-12-20T22:19:59.792Z,22.17
2017-12-20T22:22:27.346Z,22.33
2017-12-20T22:24:54.882Z,18.57
2017-12-20T22:27:23.228Z,22.27
2017-12-20T22:29:50.774Z,23.40
2017-12-20T22:32:18.451Z,21.70
2017-12-20T22:34:45.993Z,23.87
2017-12-20T22:37:13.538Z,21.10
2017-12-20T22:39:41.076Z,21.97
2017-12-20T22:42:09.408Z,22.93
2017-12-20T22:44:36.934Z,20.23
2017-12-20T22:47:04.497Z,21.60
2017-12-20T22:49:32.032Z,25.03
2017-12-20T22:51:59.564Z,24.43
2017-12-20T22:54:27.893Z,22.77
2017-12-20T22:56:55.431Z,27.17
2017-12-20T22:59:22.992Z,22.53
2017-12-20T23:01:50.539Z,21.50
2017-12-20T23:04:18.858Z,23.17
2017-12-20T23:06:46.410Z,23.13
2017-12-20T23:09:13.966Z,23.50
2017-12-20T23:11:41.503Z,21.40
2017-12-20T23:14:09.064Z,25.73
2017-12-20T23:16:36.607Z,21.77
2017-12-20T23:19:05.148Z,23.00
2017-12-20T23:21:32.690Z,20.00
2017-12-20T23:24:00.252Z,22.63
2017-12-20T23:26:27.784Z,23.40
2017-12-20T23:28:55.351Z,22.10
2017-12-20T23:31:22.898Z,20.47
2017-12-20T23:33:51.218Z,19.57
2017-12-20T23:36:18.743Z,19.43
2017-12-20T23:38:46.303Z,21.60
2017-12-20T23:41:13.847Z,22.30
2017-12-20T23:43:42.182Z,20.80
2017-12-20T23:46:09.730Z,25.13
2017-12-20T23:48:37.270Z,23.77
2017-12-20T23:51:04.854Z,21.37
2017-12-20T23:53:32.403Z,26.77
2017-12-20T23:56:00.737Z,21.60
2017-12-20T23:58:29.051Z,22.57
